Terminal Aerodrome Forecast
Issued by NWS

Home | Current Version | Previous Version | Text Only | Print | Product List | Glossary On
Versions: 1 2 3 4 5 6 7 8 9 10 11 12 13 14 15 16 17 18 19
000
FTUS43 KIND 141300 AAA
TAFBMG
TAF AMD
KBMG 141326Z 1413/1512 26006KT P6SM SCT005 SCT040 OVC100
      TEMPO 1413/1415 4SM BR BKN004
     FM141700 24010KT P6SM SCT020 SCT100 BKN250 PROB30 1422/1502 3SM
      TSRA BKN020CB OVC080
     FM150200 30008KT P6SM FEW080 SCT250
      AMD LTD TO CLD VIS AND WIND TIL 141300=

USA.gov is the U.S. government's official web portal to all federal, state and local government web resources and services.